Hartley Bay, Canada
Current Conditions -  °F | °C
As of 10:35 PM on Monday 20 Oct 2014 (Local Time) from CYXT Reporting Station
Haze Haze  
Wind Chill: 38°   Ceiling: 800
Heat Index: 41°   Visibility: 6mi
Dew Point: 41°   Wind: 5mph
Humidity: 100%   Direction: 280°W
Pressure: 29.55"   Gusts: NA
Location:  53.43°N, 129.27°W
Report Text: CYXT 210535Z 28004KT 6SM BR FEW005 BKN008 BKN030 05/05 A2955 RMK SF1SF4SC2 SLP014
Loading
Personal Weather Stations






























Interactive Weather Map
Tropical Storm Tracking
New forecast layout! Learn more

10-Day Weather Forecast

Advertisements
Track Severe Weather on mobile